Time;durP1;ratioP1;P1;durP2;ratioP2;P2;SDS_P1;SDS_P2;PMS_P1;PMS_P2;Temp;Humidity;BMP_temperature;BMP_pressure;BME280_temperature;BME280_humidity;BME280_pressure;Samples;Min_cycle;Max_cycle;Signal;HPM_P1;HPM_P2
2022/12/10 00:01:08;;;;;;;60.17;31.05;;;0.80;99.90;;;;;;5098152;28;20028;-72
2022/12/10 00:03:34;;;;;;;54.70;29.42;;;0.80;99.90;;;;;;5095669;28;20016;-72
2022/12/10 00:06:05;;;;;;;52.67;29.25;;;0.80;99.90;;;;;;5102219;28;20039;-72
2022/12/10 00:08:30;;;;;;;52.88;29.67;;;0.90;99.90;;;;;;5102236;28;20077;-72
2022/12/10 00:10:56;;;;;;;55.13;29.52;;;0.90;99.90;;;;;;5106080;28;20031;-72
2022/12/10 00:13:22;;;;;;;54.72;30.17;;;1.00;99.90;;;;;;5094138;28;20134;-72
2022/12/10 00:15:47;;;;;;;53.17;29.13;;;1.00;99.90;;;;;;5097146;28;20036;-72
2022/12/10 00:18:13;;;;;;;50.85;27.42;;;1.10;99.90;;;;;;5100583;28;20106;-71
2022/12/10 00:20:39;;;;;;;46.75;26.50;;;1.10;99.90;;;;;;5096816;28;20026;-71
2022/12/10 00:23:04;;;;;;;52.08;27.35;;;1.10;99.90;;;;;;5090759;28;20039;-72
2022/12/10 00:25:32;;;;;;;47.53;27.00;;;1.10;99.90;;;;;;5092904;28;20028;-72
2022/12/10 00:27:58;;;;;;;50.97;28.40;;;1.00;99.90;;;;;;5103150;28;20108;-73
2022/12/10 00:30:23;;;;;;;48.47;27.23;;;1.00;99.90;;;;;;5099247;28;20025;-72
2022/12/10 00:32:49;;;;;;;52.47;27.45;;;0.90;99.90;;;;;;5095893;28;20032;-72
2022/12/10 00:35:15;;;;;;;49.28;28.42;;;1.00;99.90;;;;;;5094027;28;20036;-72
2022/12/10 00:37:40;;;;;;;46.97;27.23;;;1.00;99.90;;;;;;5096173;28;20110;-72
2022/12/10 00:40:07;;;;;;;48.38;26.90;;;1.00;99.90;;;;;;5091807;28;20081;-72
2022/12/10 00:42:32;;;;;;;45.03;26.58;;;1.00;99.90;;;;;;5102891;28;20464;-72
2022/12/10 00:44:58;;;;;;;45.95;26.05;;;1.00;99.90;;;;;;5094047;28;20028;-72
2022/12/10 00:47:23;;;;;;;47.85;26.25;;;1.00;99.90;;;;;;5101461;28;20023;-72
2022/12/10 00:49:49;;;;;;;44.88;25.63;;;1.00;99.90;;;;;;5098733;28;20039;-72
2022/12/10 00:52:14;;;;;;;45.95;26.83;;;0.90;99.90;;;;;;5094920;28;20032;-73
2022/12/10 00:54:40;;;;;;;44.45;26.67;;;0.90;99.90;;;;;;5109777;28;20024;-72
2022/12/10 00:57:07;;;;;;;43.95;25.48;;;0.90;99.90;;;;;;5104569;28;20436;-72
2022/12/10 00:59:32;;;;;;;45.55;25.42;;;0.80;99.90;;;;;;5109328;28;20051;-72
2022/12/10 01:01:58;;;;;;;42.67;24.42;;;0.90;99.90;;;;;;5099868;28;20034;-72
2022/12/10 01:04:24;;;;;;;46.85;26.65;;;0.90;99.90;;;;;;5085974;28;20028;-70
2022/12/10 01:06:52;;;;;;;44.92;25.48;;;0.80;99.90;;;;;;5105252;28;20046;-71
2022/12/10 01:09:21;;;;;;;47.72;26.85;;;0.80;99.90;;;;;;5100121;28;20024;-71
2022/12/10 01:11:48;;;;;;;50.78;26.05;;;0.80;99.90;;;;;;5097733;28;20078;-71
2022/12/10 01:14:18;;;;;;;48.10;26.77;;;0.80;99.90;;;;;;5110555;28;20032;-71
2022/12/10 01:16:44;;;;;;;45.28;25.17;;;0.80;99.90;;;;;;5102060;28;20488;-71
2022/12/10 01:19:10;;;;;;;43.53;24.90;;;0.80;99.90;;;;;;5106486;28;20035;-71
2022/12/10 01:21:36;;;;;;;45.60;25.52;;;0.80;99.90;;;;;;5081018;28;20119;-71
2022/12/10 01:24:03;;;;;;;46.92;27.20;;;0.70;99.90;;;;;;5104320;28;20027;-71
2022/12/10 01:26:34;;;;;;;46.30;26.25;;;0.70;99.90;;;;;;5096484;28;20274;-71
2022/12/10 01:29:00;;;;;;;46.95;26.90;;;0.80;99.90;;;;;;5097277;28;20031;-71
2022/12/10 01:31:29;;;;;;;47.58;27.15;;;0.80;99.90;;;;;;5105796;28;20054;-71
2022/12/10 01:33:57;;;;;;;44.60;26.33;;;0.80;99.90;;;;;;5104983;28;20031;-71
2022/12/10 01:36:35;;;;;;;46.03;26.10;;;0.80;99.90;;;;;;5082350;28;20396;-72
2022/12/10 01:39:03;;;;;;;48.28;25.70;;;0.80;99.90;;;;;;5108879;28;20440;-71
2022/12/10 01:41:35;;;;;;;46.58;25.30;;;0.80;99.90;;;;;;5102282;28;20350;-72
2022/12/10 01:44:23;;;;;;;45.30;26.25;;;0.80;99.90;;;;;;5103304;28;20023;-70
2022/12/10 01:46:51;;;;;;;46.72;25.38;;;0.90;99.90;;;;;;5099593;28;20044;-72
2022/12/10 01:49:24;;;;;;;49.22;26.77;;;0.90;99.90;;;;;;5102976;28;20028;-72
2022/12/10 01:51:55;;;;;;;40.92;24.10;;;0.90;99.90;;;;;;5101381;28;20027;-71
2022/12/10 01:54:43;;;;;;;45.67;26.25;;;0.90;99.90;;;;;;5094469;28;20028;-71
2022/12/10 01:57:16;;;;;;;42.53;24.58;;;0.90;99.90;;;;;;5097067;28;20059;-71
2022/12/10 01:59:44;;;;;;;46.13;25.45;;;0.90;99.90;;;;;;5104252;28;20035;-72
2022/12/10 02:02:40;;;;;;;45.03;25.92;;;0.90;99.90;;;;;;5095976;28;20028;-71
2022/12/10 02:05:21;;;;;;;42.75;23.70;;;0.90;99.90;;;;;;5094678;28;20044;-71
2022/12/10 02:07:58;;;;;;;48.22;25.30;;;0.80;99.90;;;;;;5097831;28;20070;-71
2022/12/10 02:10:30;;;;;;;44.58;25.35;;;0.80;99.90;;;;;;5101584;28;20032;-72
2022/12/10 02:13:23;;;;;;;46.15;24.58;;;0.80;99.90;;;;;;5095608;28;20035;-71
2022/12/10 02:15:52;;;;;;;44.20;25.17;;;0.70;99.90;;;;;;5101163;28;20041;-72
2022/12/10 02:18:26;;;;;;;46.15;25.67;;;0.70;99.90;;;;;;5105023;28;20027;-71
2022/12/10 02:21:02;;;;;;;45.67;25.63;;;0.70;99.90;;;;;;5092974;28;20051;-71
2022/12/10 02:23:33;;;;;;;43.10;25.83;;;0.60;99.90;;;;;;5081655;28;20024;-71
2022/12/10 02:26:23;;;;;;;44.28;26.13;;;0.60;99.90;;;;;;5096326;28;20168;-71
2022/12/10 02:29:12;;;;;;;44.47;24.73;;;0.60;99.90;;;;;;5094347;28;20045;-72
2022/12/10 02:31:47;;;;;;;44.15;24.40;;;0.60;99.90;;;;;;5091882;28;20028;-71
2022/12/10 02:34:15;;;;;;;45.05;25.58;;;0.60;99.90;;;;;;5098770;28;20051;-71
2022/12/10 02:36:44;;;;;;;44.08;24.05;;;0.60;99.90;;;;;;5104725;28;20500;-71
2022/12/10 02:39:13;;;;;;;47.97;26.30;;;0.60;99.90;;;;;;5103679;28;20432;-70
2022/12/10 02:41:43;;;;;;;44.40;25.55;;;0.60;99.90;;;;;;5098742;28;20028;-71
2022/12/10 02:44:12;;;;;;;42.30;24.63;;;0.60;99.90;;;;;;5096705;28;20038;-70
2022/12/10 02:46:41;;;;;;;41.03;23.92;;;0.60;99.90;;;;;;5095782;28;20130;-71
2022/12/10 02:49:08;;;;;;;44.40;24.35;;;0.50;99.90;;;;;;5096262;28;20088;-70
2022/12/10 02:51:33;;;;;;;48.00;25.83;;;0.50;99.90;;;;;;5097512;28;20028;-70
2022/12/10 02:54:04;;;;;;;45.22;25.25;;;0.50;99.90;;;;;;5098061;28;20043;-71
2022/12/10 02:56:37;;;;;;;45.45;24.73;;;0.50;99.90;;;;;;5101171;28;20096;-72
2022/12/10 02:59:28;;;;;;;43.40;25.38;;;0.50;99.90;;;;;;5097321;28;20024;-71
2022/12/10 03:02:16;;;;;;;45.25;25.85;;;0.50;99.90;;;;;;5085870;28;20408;-71
2022/12/10 03:04:50;;;;;;;41.92;24.00;;;0.50;99.90;;;;;;5095571;28;20477;-73
2022/12/10 03:07:22;;;;;;;38.03;22.05;;;0.50;99.90;;;;;;5096664;28;20063;-71
2022/12/10 03:09:53;;;;;;;45.92;25.13;;;0.40;99.90;;;;;;5103345;28;20031;-72
2022/12/10 03:12:28;;;;;;;45.78;24.85;;;0.40;99.90;;;;;;5091257;28;20032;-71
2022/12/10 03:14:59;;;;;;;44.42;26.15;;;0.40;99.90;;;;;;5104962;28;20043;-71
2022/12/10 03:17:28;;;;;;;47.22;26.92;;;0.30;99.90;;;;;;5090421;28;20040;-71
2022/12/10 03:19:57;;;;;;;48.67;25.37;;;0.40;99.90;;;;;;5100372;28;20060;-71
2022/12/10 03:22:22;;;;;;;50.80;26.80;;;0.40;99.90;;;;;;5094218;28;20115;-71
2022/12/10 03:24:48;;;;;;;41.08;25.02;;;0.40;99.90;;;;;;5101098;28;20113;-72
2022/12/10 03:27:18;;;;;;;44.45;25.67;;;0.40;99.90;;;;;;5100570;28;20048;-71
2022/12/10 03:29:50;;;;;;;45.77;25.00;;;0.50;99.90;;;;;;5101524;28;20032;-72
2022/12/10 03:32:17;;;;;;;45.80;26.20;;;0.40;99.90;;;;;;5091717;28;20410;-72
2022/12/10 03:34:44;;;;;;;44.92;24.40;;;0.40;99.90;;;;;;5093605;28;20460;-72
2022/12/10 03:37:11;;;;;;;44.83;24.98;;;0.40;99.90;;;;;;5099050;28;20099;-71
2022/12/10 03:39:38;;;;;;;51.13;26.58;;;0.40;99.90;;;;;;5101480;28;20432;-72
2022/12/10 03:42:05;;;;;;;46.95;26.65;;;0.40;99.90;;;;;;5101430;28;20026;-72
2022/12/10 03:44:33;;;;;;;44.20;24.95;;;0.30;99.90;;;;;;5102603;28;20024;-71
2022/12/10 03:47:00;;;;;;;45.00;26.08;;;0.30;99.90;;;;;;5101859;28;20085;-72
2022/12/10 03:49:26;;;;;;;42.92;24.92;;;0.30;99.90;;;;;;5093347;28;20046;-72
2022/12/10 03:51:52;;;;;;;51.28;25.23;;;0.40;99.90;;;;;;5099564;28;20028;-72
2022/12/10 03:54:18;;;;;;;43.90;24.67;;;0.30;99.90;;;;;;5100347;28;20132;-71
2022/12/10 03:56:44;;;;;;;45.13;24.77;;;0.30;99.90;;;;;;5098725;28;20032;-71
2022/12/10 03:59:09;;;;;;;43.10;24.95;;;0.30;99.90;;;;;;5103350;28;20063;-71
2022/12/10 04:01:35;;;;;;;42.10;24.52;;;0.40;99.90;;;;;;5104180;28;20035;-73
2022/12/10 04:04:00;;;;;;;45.75;24.38;;;0.30;99.90;;;;;;5104729;28;20526;-72
2022/12/10 04:06:26;;;;;;;46.35;25.67;;;0.40;99.90;;;;;;5102715;28;20157;-71
2022/12/10 04:08:52;;;;;;;48.53;26.27;;;0.40;99.90;;;;;;5090193;28;20028;-73
2022/12/10 04:11:18;;;;;;;46.97;24.67;;;0.40;99.90;;;;;;5096098;28;20052;-72
2022/12/10 04:16:30;;;;;;;45.42;24.13;;;0.40;99.90;;;;;;5102287;28;20034;-73
2022/12/10 04:19:05;;;;;;;47.72;25.45;;;0.50;99.90;;;;;;5096107;28;20032;-73
2022/12/10 04:27:10;;;;;;;43.97;25.35;;;0.40;99.90;;;;;;5104132;28;20106;-73
2022/12/10 04:29:35;;;;;;;41.33;23.20;;;0.40;99.90;;;;;;5106883;28;20054;-73
2022/12/10 04:32:01;;;;;;;46.42;25.25;;;0.30;99.90;;;;;;5107323;28;20465;-71
2022/12/10 04:34:26;;;;;;;46.38;24.92;;;0.30;99.90;;;;;;5104255;28;20031;-73
2022/12/10 04:36:52;;;;;;;44.92;25.40;;;0.40;99.90;;;;;;5094998;28;20047;-72
2022/12/10 04:39:18;;;;;;;46.97;25.13;;;0.40;99.90;;;;;;5105474;28;20020;-72
2022/12/10 04:41:47;;;;;;;44.22;24.17;;;0.30;99.90;;;;;;5094274;28;20024;-73
2022/12/10 04:44:13;;;;;;;42.45;24.35;;;0.30;99.90;;;;;;5094929;28;20544;-72
2022/12/10 04:46:39;;;;;;;42.42;24.73;;;0.30;99.90;;;;;;5071451;28;20115;-75
2022/12/10 04:49:05;;;;;;;43.20;25.65;;;0.30;99.90;;;;;;5094703;28;20116;-75
2022/12/10 04:51:31;;;;;;;48.90;25.70;;;0.30;99.90;;;;;;5101627;28;20186;-75
2022/12/10 04:53:57;;;;;;;43.03;24.45;;;0.40;99.90;;;;;;5098176;28;20338;-74
2022/12/10 04:56:23;;;;;;;42.42;24.17;;;0.50;99.90;;;;;;5099663;28;20032;-75
2022/12/10 04:58:49;;;;;;;41.72;24.23;;;0.50;99.90;;;;;;5091296;28;20055;-74
2022/12/10 05:01:15;;;;;;;40.67;24.27;;;0.50;99.90;;;;;;5094486;28;20032;-74
2022/12/10 05:03:40;;;;;;;46.80;25.40;;;0.40;99.90;;;;;;5100159;28;20112;-74
2022/12/10 05:06:12;;;;;;;45.60;23.85;;;0.50;99.90;;;;;;5102747;28;20040;-72
2022/12/10 05:08:39;;;;;;;43.13;24.05;;;0.50;99.90;;;;;;5100021;28;20027;-72
2022/12/10 05:11:07;;;;;;;43.45;24.27;;;0.50;99.90;;;;;;5100400;28;20036;-74
2022/12/10 05:13:33;;;;;;;42.55;25.00;;;0.60;99.90;;;;;;5099648;28;20098;-74
2022/12/10 05:16:02;;;;;;;41.17;23.85;;;0.60;99.90;;;;;;5096488;28;20119;-73
2022/12/10 05:18:27;;;;;;;42.35;24.77;;;0.60;99.90;;;;;;5104358;28;20012;-74
2022/12/10 05:20:53;;;;;;;44.58;25.05;;;0.60;99.90;;;;;;5103455;28;20387;-74
2022/12/10 05:23:27;;;;;;;41.90;24.48;;;0.60;99.90;;;;;;5103097;28;20028;-72
2022/12/10 05:26:00;;;;;;;47.35;24.63;;;0.50;99.90;;;;;;5097236;28;20028;-73
2022/12/10 05:28:26;;;;;;;45.20;25.13;;;0.50;99.90;;;;;;5095711;28;20268;-73
2022/12/10 05:30:52;;;;;;;44.17;24.83;;;0.50;99.90;;;;;;5103153;28;20036;-73
2022/12/10 05:33:17;;;;;;;46.13;24.90;;;0.50;99.90;;;;;;5101332;28;20025;-74
2022/12/10 05:35:43;;;;;;;44.40;25.80;;;0.40;99.90;;;;;;5100250;28;20020;-74
2022/12/10 05:38:10;;;;;;;47.53;26.38;;;0.30;99.90;;;;;;5100843;28;20489;-73
2022/12/10 05:40:37;;;;;;;45.83;25.60;;;0.30;99.90;;;;;;5101094;28;20047;-73
2022/12/10 05:43:02;;;;;;;43.72;25.50;;;0.30;99.90;;;;;;5106503;28;20043;-74
2022/12/10 05:45:28;;;;;;;46.58;25.67;;;0.30;99.90;;;;;;5103670;28;20023;-74
2022/12/10 05:47:53;;;;;;;44.90;26.10;;;0.40;99.90;;;;;;5100887;28;20093;-74
2022/12/10 05:50:19;;;;;;;50.47;27.95;;;0.40;99.90;;;;;;5098891;28;20520;-74
2022/12/10 05:52:44;;;;;;;49.53;26.77;;;0.40;99.90;;;;;;5102259;28;20068;-74
2022/12/10 05:55:10;;;;;;;44.72;24.48;;;0.50;99.90;;;;;;5110365;28;20111;-73
2022/12/10 05:57:37;;;;;;;44.22;25.90;;;0.50;99.90;;;;;;5100925;28;20361;-77
2022/12/10 06:00:04;;;;;;;46.63;25.77;;;0.40;99.90;;;;;;5100683;28;20448;-75
2022/12/10 06:02:33;;;;;;;49.88;26.60;;;0.30;99.90;;;;;;5097653;28;20435;-75
2022/12/10 06:04:58;;;;;;;47.05;26.45;;;0.30;99.90;;;;;;5098092;28;20460;-75
2022/12/10 06:07:24;;;;;;;46.38;26.25;;;0.30;99.90;;;;;;5091880;28;20062;-76
2022/12/10 06:09:50;;;;;;;43.67;26.55;;;0.20;99.90;;;;;;5102781;28;20106;-76
2022/12/10 06:12:16;;;;;;;48.22;26.83;;;0.20;99.90;;;;;;5098634;28;20024;-74
2022/12/10 06:14:41;;;;;;;47.35;25.42;;;0.20;99.90;;;;;;5112407;28;20080;-73
2022/12/10 06:17:07;;;;;;;43.85;24.45;;;0.30;99.90;;;;;;5094546;28;20093;-72
2022/12/10 06:19:32;;;;;;;44.50;25.90;;;0.20;99.90;;;;;;5104613;28;20106;-73
2022/12/10 06:21:58;;;;;;;49.47;25.13;;;0.20;99.90;;;;;;5099222;28;20047;-73
2022/12/10 06:24:24;;;;;;;49.78;26.35;;;0.20;99.90;;;;;;5095327;28;20615;-73
2022/12/10 06:26:50;;;;;;;44.35;24.80;;;0.20;99.90;;;;;;5097830;28;20054;-74
2022/12/10 06:29:15;;;;;;;45.20;26.25;;;0.20;99.90;;;;;;5101259;28;20053;-75
2022/12/10 06:31:41;;;;;;;46.33;25.88;;;0.10;99.90;;;;;;5103063;28;20027;-75
2022/12/10 06:34:07;;;;;;;46.15;26.65;;;0.10;99.90;;;;;;5103404;28;20487;-74
2022/12/10 06:36:32;;;;;;;50.70;26.42;;;0.10;99.90;;;;;;5098426;28;20036;-74
2022/12/10 06:38:58;;;;;;;51.08;27.60;;;0.10;99.90;;;;;;5096479;28;20024;-73
2022/12/10 06:41:24;;;;;;;47.35;25.55;;;0.10;99.90;;;;;;5098819;28;20149;-73
2022/12/10 06:43:49;;;;;;;48.33;27.83;;;0.10;99.90;;;;;;5100571;28;20031;-73
2022/12/10 06:46:18;;;;;;;46.95;26.27;;;0.00;99.90;;;;;;5099181;28;20032;-73
2022/12/10 06:48:44;;;;;;;46.20;26.33;;;0.10;99.90;;;;;;5096639;28;20070;-73
2022/12/10 06:51:11;;;;;;;45.90;26.00;;;0.10;99.90;;;;;;5096015;28;20108;-74
2022/12/10 06:53:38;;;;;;;46.22;25.77;;;0.20;99.90;;;;;;5098852;28;20130;-73
2022/12/10 06:56:06;;;;;;;48.45;26.17;;;0.20;99.90;;;;;;5097480;28;20036;-73
2022/12/10 06:58:33;;;;;;;46.22;26.90;;;0.20;99.90;;;;;;5080515;28;20027;-75
2022/12/10 07:01:11;;;;;;;51.60;25.98;;;0.10;99.90;;;;;;5097753;28;20024;-77
2022/12/10 07:03:37;;;;;;;48.25;26.30;;;0.20;99.90;;;;;;5101260;28;20031;-76
2022/12/10 07:06:04;;;;;;;49.45;27.20;;;0.20;99.90;;;;;;5109137;28;20032;-75
2022/12/10 07:08:30;;;;;;;46.65;26.52;;;0.20;99.90;;;;;;5099746;28;20038;-78
2022/12/10 07:10:56;;;;;;;49.28;26.15;;;0.20;99.90;;;;;;5094700;28;20035;-79
2022/12/10 07:13:22;;;;;;;47.97;28.10;;;0.10;99.90;;;;;;5101821;28;20039;-77
2022/12/10 07:15:48;;;;;;;43.00;25.40;;;0.00;99.90;;;;;;5093158;28;20388;-72
2022/12/10 07:18:14;;;;;;;48.88;28.13;;;0.00;99.90;;;;;;5101907;28;20043;-77
2022/12/10 07:20:39;;;;;;;47.67;25.23;;;0.00;99.90;;;;;;5096401;28;20085;-74
2022/12/10 07:23:06;;;;;;;48.88;25.88;;;0.10;99.90;;;;;;5101576;28;20028;-76
2022/12/10 07:25:32;;;;;;;44.30;25.75;;;0.10;99.90;;;;;;5101451;28;20456;-72
2022/12/10 07:27:58;;;;;;;45.78;25.63;;;0.00;99.90;;;;;;5089794;28;20055;-70
2022/12/10 07:30:24;;;;;;;50.03;26.38;;;0.10;99.90;;;;;;5100254;28;20036;-71
2022/12/10 07:32:49;;;;;;;48.05;27.95;;;0.10;99.90;;;;;;5094739;28;20067;-70
2022/12/10 07:35:15;;;;;;;51.30;27.25;;;0.10;99.90;;;;;;5088157;28;20026;-72
2022/12/10 07:37:41;;;;;;;46.92;26.02;;;0.20;99.90;;;;;;5087277;28;20056;-73
2022/12/10 07:40:07;;;;;;;42.17;25.55;;;0.20;99.90;;;;;;5095958;28;20073;-71
2022/12/10 07:42:32;;;;;;;47.10;25.95;;;0.20;99.90;;;;;;5096625;28;20024;-72
2022/12/10 07:44:58;;;;;;;44.38;24.60;;;0.20;99.90;;;;;;5095984;28;20039;-72
2022/12/10 07:47:23;;;;;;;44.60;25.70;;;0.20;99.90;;;;;;5094620;28;20381;-68
2022/12/10 07:49:49;;;;;;;43.38;25.45;;;0.30;99.90;;;;;;5096107;28;20028;-71
2022/12/10 07:52:15;;;;;;;52.83;26.63;;;0.30;99.90;;;;;;5094909;28;20035;-72
2022/12/10 07:54:40;;;;;;;48.53;26.75;;;0.30;99.90;;;;;;5094472;28;20020;-71
2022/12/10 07:57:06;;;;;;;42.85;23.98;;;0.30;99.90;;;;;;5090073;28;20093;-71
2022/12/10 07:59:31;;;;;;;46.67;24.70;;;0.30;99.90;;;;;;5096414;28;20032;-72
2022/12/10 08:01:57;;;;;;;45.88;24.05;;;0.50;99.90;;;;;;5095381;28;20417;-71
2022/12/10 08:04:23;;;;;;;42.85;25.25;;;0.60;99.90;;;;;;5094674;28;20028;-68
2022/12/10 08:06:48;;;;;;;41.17;24.75;;;0.60;99.90;;;;;;5098575;28;20105;-69
2022/12/10 08:09:14;;;;;;;43.08;25.65;;;0.50;99.90;;;;;;5093432;28;20035;-69
2022/12/10 08:11:40;;;;;;;45.92;25.15;;;0.50;99.90;;;;;;5095283;28;20024;-70
2022/12/10 08:14:05;;;;;;;43.85;24.92;;;0.50;99.90;;;;;;5096393;28;20396;-70
2022/12/10 08:16:32;;;;;;;45.28;25.80;;;0.60;99.90;;;;;;5097387;28;20435;-71
2022/12/10 08:18:59;;;;;;;44.67;24.92;;;0.60;99.90;;;;;;5096791;28;20104;-70
2022/12/10 08:21:28;;;;;;;44.03;23.75;;;0.60;99.90;;;;;;5093859;28;20031;-71
2022/12/10 08:23:55;;;;;;;44.92;24.40;;;0.70;99.90;;;;;;5099648;28;20024;-69
2022/12/10 08:26:24;;;;;;;45.55;26.33;;;0.70;99.90;;;;;;5093752;28;20060;-70
2022/12/10 08:28:50;;;;;;;41.53;24.17;;;0.80;99.90;;;;;;5092864;28;20036;-70
2022/12/10 08:31:18;;;;;;;46.17;26.25;;;0.80;99.90;;;;;;5088115;28;20172;-71
2022/12/10 08:33:44;;;;;;;48.33;26.30;;;0.80;99.90;;;;;;5098008;28;20032;-69
2022/12/10 08:36:13;;;;;;;40.58;24.20;;;0.90;99.90;;;;;;5090002;28;20439;-71
2022/12/10 08:38:39;;;;;;;48.17;25.67;;;0.90;99.90;;;;;;5094739;28;20115;-76
2022/12/10 08:41:22;;;;;;;43.90;25.23;;;0.90;99.90;;;;;;5101253;28;20111;-75
2022/12/10 08:43:50;;;;;;;43.38;24.88;;;0.90;99.90;;;;;;5100889;28;20031;-73
2022/12/10 08:46:16;;;;;;;45.65;25.63;;;0.90;99.90;;;;;;5098138;28;20162;-75
2022/12/10 08:48:42;;;;;;;39.72;23.85;;;0.90;99.90;;;;;;5098512;28;20504;-73
2022/12/10 08:51:10;;;;;;;47.88;27.15;;;0.90;99.90;;;;;;5101471;28;20162;-71
2022/12/10 08:53:35;;;;;;;47.05;25.92;;;0.90;99.90;;;;;;5091604;28;20028;-72
2022/12/10 08:56:01;;;;;;;40.55;23.17;;;0.90;99.90;;;;;;5103551;28;20099;-74
2022/12/10 08:58:27;;;;;;;47.47;25.83;;;0.90;99.90;;;;;;5102382;28;20019;-72
2022/12/10 09:00:52;;;;;;;44.83;24.77;;;1.00;99.90;;;;;;5098784;28;20149;-72
2022/12/10 09:03:18;;;;;;;43.40;24.92;;;1.10;99.90;;;;;;5103258;28;21362;-85
2022/12/10 09:05:44;;;;;;;38.70;22.98;;;1.00;99.90;;;;;;5096163;28;20024;-72
2022/12/10 09:08:10;;;;;;;39.95;23.77;;;1.10;99.90;;;;;;5100414;28;20028;-72
2022/12/10 09:10:39;;;;;;;38.03;22.25;;;1.20;99.90;;;;;;5091617;28;20023;-70
2022/12/10 09:13:05;;;;;;;43.38;23.80;;;1.30;99.90;;;;;;5102614;28;20133;-74
2022/12/10 09:15:31;;;;;;;41.60;23.15;;;1.20;99.90;;;;;;5101119;28;20063;-76
2022/12/10 09:17:56;;;;;;;44.40;24.75;;;1.30;99.90;;;;;;5096480;28;20402;-76
2022/12/10 09:20:22;;;;;;;44.42;23.77;;;1.20;99.90;;;;;;5101515;28;20034;-75
2022/12/10 09:22:48;;;;;;;41.40;24.55;;;1.10;99.90;;;;;;5101071;28;20028;-71
2022/12/10 09:25:15;;;;;;;42.17;25.15;;;1.10;99.90;;;;;;5096829;28;20032;-71
2022/12/10 09:27:41;;;;;;;46.65;25.95;;;1.20;99.90;;;;;;5084511;28;20076;-73
2022/12/10 09:30:07;;;;;;;46.42;26.10;;;1.20;99.90;;;;;;5099019;28;20043;-73
2022/12/10 09:32:33;;;;;;;43.20;25.52;;;1.20;99.90;;;;;;5101667;28;20036;-77
2022/12/10 09:34:59;;;;;;;42.08;23.80;;;1.30;99.90;;;;;;5109249;28;20076;-74
2022/12/10 09:37:25;;;;;;;42.92;24.77;;;1.30;99.90;;;;;;5101789;28;20036;-75
2022/12/10 09:39:50;;;;;;;45.90;24.75;;;1.30;99.90;;;;;;5104796;28;20035;-74
2022/12/10 09:42:55;;;;;;;40.08;23.40;;;1.40;99.90;;;;;;5099308;28;20082;-70
2022/12/10 09:45:37;;;;;;;43.92;24.02;;;1.50;99.90;;;;;;4982698;28;20056;-73
2022/12/10 09:48:24;;;;;;;37.22;23.20;;;1.50;99.90;;;;;;5086354;28;20040;-71
2022/12/10 09:51:18;;;;;;;46.42;24.45;;;1.50;99.90;;;;;;5099662;28;20437;-74
2022/12/10 09:53:46;;;;;;;41.92;24.08;;;1.60;99.90;;;;;;5054151;28;20075;-71
2022/12/10 09:56:25;;;;;;;39.88;24.63;;;1.60;99.90;;;;;;5095218;28;20123;-72
2022/12/10 09:58:51;;;;;;;43.17;23.92;;;1.60;99.90;;;;;;5097722;28;20123;-73
2022/12/10 10:01:22;;;;;;;41.92;22.58;;;1.60;99.90;;;;;;5098125;28;20073;-72
2022/12/10 10:03:48;;;;;;;45.15;25.05;;;1.60;99.90;;;;;;5096214;28;20033;-71
2022/12/10 10:06:14;;;;;;;46.30;23.30;;;1.60;99.90;;;;;;5095743;28;20032;-71
2022/12/10 10:08:56;;;;;;;40.67;23.42;;;1.60;99.90;;;;;;5095730;28;20019;-67
2022/12/10 10:11:28;;;;;;;42.03;23.88;;;1.60;99.90;;;;;;5099677;28;20024;-70
2022/12/10 10:14:13;;;;;;;45.55;24.73;;;1.70;99.90;;;;;;5076276;28;20097;-68
2022/12/10 10:16:57;;;;;;;40.50;23.67;;;1.60;99.90;;;;;;5091591;28;20047;-69
2022/12/10 10:19:29;;;;;;;41.40;24.10;;;1.80;99.90;;;;;;5095706;28;20028;-71
2022/12/10 10:21:55;;;;;;;38.67;22.90;;;1.70;99.90;;;;;;5097244;28;20043;-71
2022/12/10 10:24:34;;;;;;;40.40;24.55;;;1.70;99.90;;;;;;5096522;28;20031;-73
2022/12/10 10:27:17;;;;;;;43.55;24.42;;;1.70;99.90;;;;;;5090696;28;20050;-72
2022/12/10 10:29:52;;;;;;;41.13;23.92;;;1.80;99.90;;;;;;5098108;28;20130;-69
2022/12/10 10:32:21;;;;;;;40.10;23.67;;;1.80;99.90;;;;;;5088916;28;20032;-70
2022/12/10 10:34:53;;;;;;;38.63;23.27;;;1.80;99.90;;;;;;5083644;28;20173;-71
2022/12/10 10:37:30;;;;;;;41.08;22.95;;;1.80;99.90;;;;;;5092048;28;20039;-76
2022/12/10 10:39:57;;;;;;;39.10;23.00;;;1.90;99.90;;;;;;5089381;28;20114;-73
2022/12/10 10:42:37;;;;;;;39.40;23.40;;;1.90;99.90;;;;;;5104249;28;20028;-73
2022/12/10 10:45:52;;;;;;;38.53;22.80;;;2.00;99.90;;;;;;5108676;28;20062;-70
2022/12/10 10:48:21;;;;;;;37.67;23.35;;;2.00;99.90;;;;;;5081084;28;20039;-71
2022/12/10 10:51:18;;;;;;;36.38;21.65;;;2.10;99.90;;;;;;5103956;28;20036;-71
2022/12/10 10:53:49;;;;;;;35.85;21.30;;;2.00;99.90;;;;;;5107565;28;20020;-72
2022/12/10 10:56:17;;;;;;;38.35;21.95;;;2.00;99.90;;;;;;5096497;28;20032;-69
2022/12/10 10:59:03;;;;;;;39.65;22.52;;;2.10;99.90;;;;;;5098462;28;20024;-69
2022/12/10 11:01:50;;;;;;;40.22;23.35;;;2.00;99.90;;;;;;5099663;28;20292;-69
2022/12/10 11:04:18;;;;;;;37.35;21.80;;;2.10;99.90;;;;;;5090574;28;20039;-69
2022/12/10 11:06:44;;;;;;;40.33;23.25;;;2.10;99.90;;;;;;5092017;28;20032;-69
2022/12/10 11:09:20;;;;;;;40.63;22.80;;;2.10;99.90;;;;;;5096989;28;20036;-68
2022/12/10 11:11:50;;;;;;;41.10;24.08;;;2.10;99.90;;;;;;5090599;28;20032;-69
2022/12/10 11:14:29;;;;;;;36.03;22.40;;;2.10;99.90;;;;;;5098472;28;20027;-68
2022/12/10 11:17:24;;;;;;;38.35;21.77;;;2.10;99.90;;;;;;5102315;28;20120;-69
2022/12/10 11:19:59;;;;;;;35.70;21.38;;;2.20;99.90;;;;;;5077863;28;20104;-69
2022/12/10 11:22:32;;;;;;;33.42;20.65;;;2.30;99.90;;;;;;5103321;28;20023;-69
2022/12/10 11:25:00;;;;;;;36.78;22.05;;;2.20;99.90;;;;;;5094424;28;20074;-69
2022/12/10 11:27:38;;;;;;;34.13;21.63;;;2.20;99.90;;;;;;5096206;28;20044;-70
2022/12/10 11:30:17;;;;;;;37.05;22.02;;;2.30;99.90;;;;;;5104287;28;20023;-70
2022/12/10 11:33:20;;;;;;;34.72;21.15;;;2.30;99.90;;;;;;5097538;28;20043;-69
2022/12/10 11:36:03;;;;;;;34.90;20.83;;;2.30;99.90;;;;;;5099907;28;20028;-69
2022/12/10 11:38:46;;;;;;;35.97;21.63;;;2.30;99.90;;;;;;5090936;28;20604;-71
2022/12/10 11:41:28;;;;;;;39.45;22.65;;;2.30;99.90;;;;;;5103554;28;20028;-70
2022/12/10 11:44:15;;;;;;;37.13;21.85;;;2.30;99.90;;;;;;5100127;28;20024;-70
2022/12/10 11:46:46;;;;;;;34.65;20.67;;;2.30;99.90;;;;;;5103509;28;20114;-70
2022/12/10 11:49:32;;;;;;;37.38;20.95;;;2.30;99.90;;;;;;5096436;28;20024;-70
2022/12/10 11:52:18;;;;;;;38.60;20.48;;;2.20;99.90;;;;;;5099040;28;20100;-73
2022/12/10 11:54:52;;;;;;;35.05;20.70;;;2.30;99.90;;;;;;5093213;28;20069;-72
2022/12/10 11:57:33;;;;;;;34.83;20.33;;;2.30;99.90;;;;;;5092986;28;20396;-72
2022/12/10 12:00:21;;;;;;;34.97;21.52;;;2.20;99.90;;;;;;5101066;28;20478;-70
2022/12/10 12:03:06;;;;;;;37.72;22.45;;;2.30;99.90;;;;;;5096144;28;20027;-71
2022/12/10 12:06:19;;;;;;;37.17;21.98;;;2.40;99.90;;;;;;5093402;28;20035;-72
2022/12/10 12:09:29;;;;;;;34.20;19.63;;;2.40;99.90;;;;;;5096092;28;20027;-72
2022/12/10 12:12:08;;;;;;;32.65;19.92;;;2.40;99.90;;;;;;5004582;28;20606;-70
2022/12/10 12:14:46;;;;;;;34.37;20.17;;;2.40;99.90;;;;;;5004442;28;20519;-71
2022/12/10 12:17:46;;;;;;;37.28;21.55;;;2.40;99.90;;;;;;4994754;28;20050;-71
2022/12/10 12:20:17;;;;;;;35.80;20.23;;;2.40;99.90;;;;;;5004116;28;20487;-71
2022/12/10 12:22:48;;;;;;;32.45;19.77;;;2.40;99.90;;;;;;5003704;28;20296;-72
2022/12/10 12:25:26;;;;;;;32.30;20.33;;;2.40;99.90;;;;;;5000878;28;20053;-70
2022/12/10 12:28:01;;;;;;;37.15;21.30;;;2.40;99.90;;;;;;4999185;28;20042;-70
2022/12/10 12:30:27;;;;;;;31.42;19.35;;;2.40;99.90;;;;;;5005477;28;20271;-69
2022/12/10 12:33:09;;;;;;;32.00;18.73;;;2.50;99.90;;;;;;4999334;28;20030;-71
2022/12/10 12:36:03;;;;;;;29.88;17.02;;;2.50;99.90;;;;;;5002379;28;21131;-71
2022/12/10 12:38:36;;;;;;;27.45;17.80;;;2.50;99.90;;;;;;5024754;28;20034;-71
2022/12/10 12:41:15;;;;;;;31.27;17.65;;;2.50;99.90;;;;;;5017098;28;20030;-70
2022/12/10 12:43:55;;;;;;;29.20;17.20;;;2.60;99.90;;;;;;5093349;28;20040;-70
2022/12/10 12:46:45;;;;;;;30.35;18.13;;;2.50;99.90;;;;;;5100302;28;20050;-69
2022/12/10 12:49:24;;;;;;;29.02;16.15;;;2.60;99.90;;;;;;5101487;28;20385;-71
2022/12/10 12:51:50;;;;;;;30.50;18.20;;;2.50;99.90;;;;;;5094106;28;20465;-71
2022/12/10 12:54:15;;;;;;;30.67;18.00;;;2.50;99.90;;;;;;5102611;28;20032;-71
2022/12/10 12:57:00;;;;;;;27.42;16.98;;;2.50;99.90;;;;;;5086139;28;20044;-71
2022/12/10 12:59:36;;;;;;;30.38;19.42;;;2.60;99.90;;;;;;5101589;28;20031;-70
2022/12/10 13:02:07;;;;;;;36.35;18.27;;;2.60;99.90;;;;;;5104223;28;20034;-69